sensor_id;sensor_type;location;lat;lon;timestamp;pressure;altitude;pressure_sealevel;temperature;humidity
51261;BME280;61705;46.228;24.812;2023-03-03T00:00:49;97605.78;;;2.49;86.88
51261;BME280;61705;46.228;24.812;2023-03-03T00:03:19;97611.06;;;2.46;86.92
51261;BME280;61705;46.228;24.812;2023-03-03T00:05:46;97611.09;;;2.43;87.13
51261;BME280;61705;46.228;24.812;2023-03-03T00:08:13;97613.72;;;2.43;87.33
51261;BME280;61705;46.228;24.812;2023-03-03T00:10:40;97603.25;;;2.46;87.36
51261;BME280;61705;46.228;24.812;2023-03-03T00:13:17;97598.03;;;2.45;87.30
51261;BME280;61705;46.228;24.812;2023-03-03T00:15:44;97591.09;;;2.42;87.46
51261;BME280;61705;46.228;24.812;2023-03-03T00:18:34;97586.78;;;2.41;87.50
51261;BME280;61705;46.228;24.812;2023-03-03T00:21:03;97585.94;;;2.41;87.53
51261;BME280;61705;46.228;24.812;2023-03-03T00:23:39;97579.03;;;2.36;87.66
51261;BME280;61705;46.228;24.812;2023-03-03T00:26:35;97581.66;;;2.35;87.53
51261;BME280;61705;46.228;24.812;2023-03-03T00:29:35;97581.78;;;2.27;87.60
51261;BME280;61705;46.228;24.812;2023-03-03T00:32:16;97584.38;;;2.27;87.84
51261;BME280;61705;46.228;24.812;2023-03-03T00:34:43;97581.84;;;2.23;87.89
51261;BME280;61705;46.228;24.812;2023-03-03T00:39:51;97583.69;;;2.14;88.36
51261;BME280;61705;46.228;24.812;2023-03-03T00:42:18;97577.59;;;2.14;88.33
51261;BME280;61705;46.228;24.812;2023-03-03T00:44:55;97575.94;;;2.08;88.32
51261;BME280;61705;46.228;24.812;2023-03-03T00:52:39;97564.75;;;2.02;88.10
51261;BME280;61705;46.228;24.812;2023-03-03T00:55:07;97566.50;;;1.98;87.98
51261;BME280;61705;46.228;24.812;2023-03-03T00:57:33;97563.13;;;1.93;87.98
51261;BME280;61705;46.228;24.812;2023-03-03T01:00:00;97564.84;;;1.96;88.01
51261;BME280;61705;46.228;24.812;2023-03-03T01:02:31;97558.63;;;2.06;88.04
51261;BME280;61705;46.228;24.812;2023-03-03T01:04:58;97557.56;;;2.18;88.14
51261;BME280;61705;46.228;24.812;2023-03-03T01:07:24;97553.09;;;2.27;87.98
51261;BME280;61705;46.228;24.812;2023-03-03T01:09:51;97554.75;;;2.31;87.88
51261;BME280;61705;46.228;24.812;2023-03-03T01:12:18;97550.41;;;2.32;87.92
51261;BME280;61705;46.228;24.812;2023-03-03T01:14:45;97552.19;;;2.30;87.76
51261;BME280;61705;46.228;24.812;2023-03-03T01:17:14;97550.53;;;2.24;87.60
51261;BME280;61705;46.228;24.812;2023-03-03T01:19:41;97541.97;;;2.16;87.84
51261;BME280;61705;46.228;24.812;2023-03-03T01:22:08;97549.78;;;2.14;87.88
51261;BME280;61705;46.228;24.812;2023-03-03T01:24:37;97547.19;;;2.14;87.77
51261;BME280;61705;46.228;24.812;2023-03-03T01:27:04;97550.72;;;2.12;87.76
51261;BME280;61705;46.228;24.812;2023-03-03T01:29:32;97545.41;;;2.18;87.74
51261;BME280;61705;46.228;24.812;2023-03-03T01:31:59;97541.94;;;2.18;87.82
51261;BME280;61705;46.228;24.812;2023-03-03T01:34:26;97538.38;;;2.22;87.65
51261;BME280;61705;46.228;24.812;2023-03-03T01:36:53;97543.59;;;2.23;87.77
51261;BME280;61705;46.228;24.812;2023-03-03T01:39:23;97539.25;;;2.22;87.79
51261;BME280;61705;46.228;24.812;2023-03-03T01:41:49;97535.78;;;2.23;87.92
51261;BME280;61705;46.228;24.812;2023-03-03T01:44:16;97532.31;;;2.21;87.90
51261;BME280;61705;46.228;24.812;2023-03-03T01:46:57;97540.91;;;2.29;88.01
51261;BME280;61705;46.228;24.812;2023-03-03T01:49:33;97535.63;;;2.32;87.97
51261;BME280;61705;46.228;24.812;2023-03-03T01:52:10;97527.78;;;2.32;87.92
51261;BME280;61705;46.228;24.812;2023-03-03T01:54:43;97526.00;;;2.37;87.99
51261;BME280;61705;46.228;24.812;2023-03-03T01:57:17;97525.09;;;2.38;87.90
51261;BME280;61705;46.228;24.812;2023-03-03T01:59:48;97526.81;;;2.41;88.07
51261;BME280;61705;46.228;24.812;2023-03-03T02:02:17;97530.38;;;2.35;88.07
51261;BME280;61705;46.228;24.812;2023-03-03T02:04:44;97532.06;;;2.40;88.22
51261;BME280;61705;46.228;24.812;2023-03-03T02:07:13;97532.91;;;2.40;88.21
51261;BME280;61705;46.228;24.812;2023-03-03T02:10:04;97525.06;;;2.42;88.26
51261;BME280;61705;46.228;24.812;2023-03-03T02:12:43;97520.91;;;2.30;88.06
51261;BME280;61705;46.228;24.812;2023-03-03T02:15:22;97524.44;;;2.26;88.45
51261;BME280;61705;46.228;24.812;2023-03-03T02:17:56;97526.94;;;2.32;88.43
51261;BME280;61705;46.228;24.812;2023-03-03T02:23:03;97523.38;;;2.37;88.50
51261;BME280;61705;46.228;24.812;2023-03-03T02:28:07;97519.19;;;2.27;88.57
51261;BME280;61705;46.228;24.812;2023-03-03T02:30:37;97516.56;;;2.29;88.81
51261;BME280;61705;46.228;24.812;2023-03-03T02:33:04;97520.88;;;2.33;88.82
51261;BME280;61705;46.228;24.812;2023-03-03T02:35:39;97520.75;;;2.39;88.71
51261;BME280;61705;46.228;24.812;2023-03-03T02:46:17;97523.31;;;2.42;88.54
51261;BME280;61705;46.228;24.812;2023-03-03T02:48:44;97524.16;;;2.43;88.19
51261;BME280;61705;46.228;24.812;2023-03-03T02:51:11;97522.41;;;2.45;87.98
51261;BME280;61705;46.228;24.812;2023-03-03T02:53:40;97524.16;;;2.43;87.88
51261;BME280;61705;46.228;24.812;2023-03-03T02:56:07;97519.88;;;2.40;87.93
51261;BME280;61705;46.228;24.812;2023-03-03T02:58:35;97517.28;;;2.40;87.91
51261;BME280;61705;46.228;24.812;2023-03-03T03:01:05;97525.00;;;2.46;88.11
51261;BME280;61705;46.228;24.812;2023-03-03T03:03:32;97520.59;;;2.48;87.84
51261;BME280;61705;46.228;24.812;2023-03-03T03:05:59;97518.84;;;2.49;87.83
51261;BME280;61705;46.228;24.812;2023-03-03T03:08:26;97521.50;;;2.47;87.96
51261;BME280;61705;46.228;24.812;2023-03-03T03:10:52;97519.81;;;2.45;88.12
51261;BME280;61705;46.228;24.812;2023-03-03T03:13:19;97520.59;;;2.50;88.30
51261;BME280;61705;46.228;24.812;2023-03-03T03:15:46;97514.50;;;2.51;88.18
51261;BME280;61705;46.228;24.812;2023-03-03T03:18:15;97507.53;;;2.51;88.03
51261;BME280;61705;46.228;24.812;2023-03-03T03:20:42;97512.06;;;2.40;88.58
51261;BME280;61705;46.228;24.812;2023-03-03T03:23:11;97511.13;;;2.43;88.75
51261;BME280;61705;46.228;24.812;2023-03-03T03:25:38;97504.06;;;2.51;88.59
51261;BME280;61705;46.228;24.812;2023-03-03T03:28:11;97504.91;;;2.51;88.18
51261;BME280;61705;46.228;24.812;2023-03-03T03:30:39;97507.53;;;2.51;88.26
51261;BME280;61705;46.228;24.812;2023-03-03T03:33:06;97504.84;;;2.56;88.18
51261;BME280;61705;46.228;24.812;2023-03-03T03:35:36;97504.84;;;2.56;88.28
51261;BME280;61705;46.228;24.812;2023-03-03T03:38:06;97507.38;;;2.60;88.00
51261;BME280;61705;46.228;24.812;2023-03-03T03:40:33;97504.72;;;2.64;87.78
51261;BME280;61705;46.228;24.812;2023-03-03T03:43:00;97502.16;;;2.60;87.83
51261;BME280;61705;46.228;24.812;2023-03-03T03:45:28;97510.84;;;2.61;87.74
51261;BME280;61705;46.228;24.812;2023-03-03T03:48:02;97512.66;;;2.56;87.71
51261;BME280;61705;46.228;24.812;2023-03-03T03:50:32;97505.69;;;2.58;87.76
51261;BME280;61705;46.228;24.812;2023-03-03T03:53:00;97508.16;;;2.67;87.26
51261;BME280;61705;46.228;24.812;2023-03-03T03:55:27;97502.13;;;2.64;87.23
51261;BME280;61705;46.228;24.812;2023-03-03T03:57:56;97501.19;;;2.68;87.21
51261;BME280;61705;46.228;24.812;2023-03-03T04:00:23;97500.38;;;2.64;87.42
51261;BME280;61705;46.228;24.812;2023-03-03T04:02:51;97501.34;;;2.57;87.51
51261;BME280;61705;46.228;24.812;2023-03-03T04:05:18;97499.66;;;2.53;87.83
51261;BME280;61705;46.228;24.812;2023-03-03T04:07:45;97499.69;;;2.51;88.06
51261;BME280;61705;46.228;24.812;2023-03-03T04:10:12;97503.94;;;2.58;87.93
51261;BME280;61705;46.228;24.812;2023-03-03T04:12:45;97498.56;;;2.68;87.70
51261;BME280;61705;46.228;24.812;2023-03-03T04:15:13;97496.75;;;2.71;87.25
51261;BME280;61705;46.228;24.812;2023-03-03T04:17:43;97496.91;;;2.62;87.19
51261;BME280;61705;46.228;24.812;2023-03-03T04:20:13;97491.75;;;2.59;87.74
51261;BME280;61705;46.228;24.812;2023-03-03T04:22:46;97487.38;;;2.61;88.25
51261;BME280;61705;46.228;24.812;2023-03-03T04:25:15;97494.44;;;2.54;88.30
51261;BME280;61705;46.228;24.812;2023-03-03T04:27:43;97491.78;;;2.56;88.40
51261;BME280;61705;46.228;24.812;2023-03-03T04:30:11;97489.09;;;2.62;88.28
51261;BME280;61705;46.228;24.812;2023-03-03T04:32:38;97489.00;;;2.67;87.81
51261;BME280;61705;46.228;24.812;2023-03-03T04:35:06;97481.25;;;2.64;87.68
51261;BME280;61705;46.228;24.812;2023-03-03T04:37:35;97488.19;;;2.63;87.70
51261;BME280;61705;46.228;24.812;2023-03-03T04:40:04;97484.72;;;2.64;87.57
51261;BME280;61705;46.228;24.812;2023-03-03T04:42:31;97490.75;;;2.66;87.42
51261;BME280;61705;46.228;24.812;2023-03-03T04:44:57;97488.22;;;2.61;87.52
51261;BME280;61705;46.228;24.812;2023-03-03T04:47:24;97490.84;;;2.61;87.56
51261;BME280;61705;46.228;24.812;2023-03-03T04:49:51;97488.97;;;2.68;87.68
51261;BME280;61705;46.228;24.812;2023-03-03T04:52:18;97488.88;;;2.74;87.46
51261;BME280;61705;46.228;24.812;2023-03-03T04:54:45;97483.84;;;2.64;87.62
51261;BME280;61705;46.228;24.812;2023-03-03T04:57:11;97486.38;;;2.67;87.88
51261;BME280;61705;46.228;24.812;2023-03-03T04:59:42;97494.16;;;2.70;87.71
51261;BME280;61705;46.228;24.812;2023-03-03T05:02:09;97492.50;;;2.67;87.58
51261;BME280;61705;46.228;24.812;2023-03-03T05:04:35;97488.19;;;2.65;87.79
51261;BME280;61705;46.228;24.812;2023-03-03T05:07:05;97489.00;;;2.67;87.98
51261;BME280;61705;46.228;24.812;2023-03-03T05:09:35;97490.69;;;2.71;87.82
51261;BME280;61705;46.228;24.812;2023-03-03T05:12:01;97494.97;;;2.75;87.86
51261;BME280;61705;46.228;24.812;2023-03-03T05:14:28;97486.22;;;2.77;87.83
51261;BME280;61705;46.228;24.812;2023-03-03T05:16:55;97490.63;;;2.74;87.77
51261;BME280;61705;46.228;24.812;2023-03-03T05:19:24;97481.91;;;2.73;87.90
51261;BME280;61705;46.228;24.812;2023-03-03T05:21:54;97479.31;;;2.75;88.10
51261;BME280;61705;46.228;24.812;2023-03-03T05:24:23;97487.03;;;2.79;88.20
51261;BME280;61705;46.228;24.812;2023-03-03T05:26:49;97480.97;;;2.80;88.02
51261;BME280;61705;46.228;24.812;2023-03-03T05:29:16;97489.59;;;2.82;87.98
51261;BME280;61705;46.228;24.812;2023-03-03T05:31:45;97495.63;;;2.86;87.96
51261;BME280;61705;46.228;24.812;2023-03-03T05:34:12;97493.75;;;2.93;87.88
51261;BME280;61705;46.228;24.812;2023-03-03T05:36:38;97490.16;;;3.00;87.68
51261;BME280;61705;46.228;24.812;2023-03-03T05:39:06;97490.94;;;3.03;87.85
51261;BME280;61705;46.228;24.812;2023-03-03T05:41:32;97500.47;;;3.06;87.82
51261;BME280;61705;46.228;24.812;2023-03-03T05:44:02;97493.28;;;3.19;87.69
51261;BME280;61705;46.228;24.812;2023-03-03T05:46:29;97494.94;;;3.23;87.44
51261;BME280;61705;46.228;24.812;2023-03-03T05:48:56;97495.69;;;3.29;87.07
51261;BME280;61705;46.228;24.812;2023-03-03T05:51:23;97500.84;;;3.32;86.97
51261;BME280;61705;46.228;24.812;2023-03-03T05:53:49;97496.50;;;3.31;86.82
51261;BME280;61705;46.228;24.812;2023-03-03T05:56:16;97498.25;;;3.31;86.51
51261;BME280;61705;46.228;24.812;2023-03-03T05:58:43;97498.31;;;3.29;86.49
51261;BME280;61705;46.228;24.812;2023-03-03T06:01:10;97503.47;;;3.32;86.50
51261;BME280;61705;46.228;24.812;2023-03-03T06:03:37;97497.34;;;3.35;86.44
51261;BME280;61705;46.228;24.812;2023-03-03T06:06:04;97502.50;;;3.37;86.45
51261;BME280;61705;46.228;24.812;2023-03-03T06:08:31;97497.34;;;3.33;86.29
51261;BME280;61705;46.228;24.812;2023-03-03T06:10:58;97500.00;;;3.32;86.36
51261;BME280;61705;46.228;24.812;2023-03-03T06:13:25;97501.47;;;3.45;86.34
51261;BME280;61705;46.228;24.812;2023-03-03T06:15:51;97501.38;;;3.50;86.17
51261;BME280;61705;46.228;24.812;2023-03-03T06:18:18;97502.81;;;3.65;86.12
51261;BME280;61705;46.228;24.812;2023-03-03T06:20:49;97498.22;;;3.76;85.96
51261;BME280;61705;46.228;24.812;2023-03-03T06:23:16;97501.53;;;3.83;86.10
51261;BME280;61705;46.228;24.812;2023-03-03T06:25:43;97491.81;;;3.89;86.14
51261;BME280;61705;46.228;24.812;2023-03-03T06:28:10;97496.91;;;3.97;85.95
51261;BME280;61705;46.228;24.812;2023-03-03T06:30:36;97503.84;;;3.98;85.96
51261;BME280;61705;46.228;24.812;2023-03-03T06:33:03;97502.03;;;4.00;85.75
51261;BME280;61705;46.228;24.812;2023-03-03T06:35:37;97503.00;;;3.97;85.95
51261;BME280;61705;46.228;24.812;2023-03-03T06:38:04;97496.59;;;4.11;85.77
51261;BME280;61705;46.228;24.812;2023-03-03T06:40:31;97500.78;;;4.18;85.12
51261;BME280;61705;46.228;24.812;2023-03-03T06:43:00;97496.28;;;4.24;84.60
51261;BME280;61705;46.228;24.812;2023-03-03T06:45:29;97499.44;;;4.37;84.10
51261;BME280;61705;46.228;24.812;2023-03-03T06:47:56;97491.38;;;4.46;83.79
51261;BME280;61705;46.228;24.812;2023-03-03T06:50:23;97495.72;;;4.47;83.27
51261;BME280;61705;46.228;24.812;2023-03-03T06:53:17;97491.16;;;4.56;83.27
51261;BME280;61705;46.228;24.812;2023-03-03T06:55:47;97487.44;;;4.64;82.66
51261;BME280;61705;46.228;24.812;2023-03-03T06:58:19;97493.38;;;4.72;82.03
51261;BME280;61705;46.228;24.812;2023-03-03T07:03:25;97491.59;;;4.73;81.60
51261;BME280;61705;46.228;24.812;2023-03-03T07:05:55;97486.28;;;4.76;80.24
51261;BME280;61705;46.228;24.812;2023-03-03T07:08:22;97493.16;;;4.80;80.48
51261;BME280;61705;46.228;24.812;2023-03-03T07:10:50;97494.06;;;4.79;80.57
51261;BME280;61705;46.228;24.812;2023-03-03T07:13:20;97492.19;;;4.84;80.21
51261;BME280;61705;46.228;24.812;2023-03-03T07:15:48;97494.81;;;4.84;80.48
51261;BME280;61705;46.228;24.812;2023-03-03T07:18:36;97492.09;;;4.87;80.42
51261;BME280;61705;46.228;24.812;2023-03-03T07:23:50;97496.34;;;4.91;80.66
51261;BME280;61705;46.228;24.812;2023-03-03T07:26:20;97495.59;;;4.88;80.59
51261;BME280;61705;46.228;24.812;2023-03-03T07:28:54;97492.97;;;4.88;80.47
51261;BME280;61705;46.228;24.812;2023-03-03T07:31:36;97497.19;;;4.93;80.54
51261;BME280;61705;46.228;24.812;2023-03-03T07:36:44;97495.81;;;5.13;80.52
51261;BME280;61705;46.228;24.812;2023-03-03T07:39:34;97492.13;;;5.20;79.88
51261;BME280;61705;46.228;24.812;2023-03-03T07:44:41;97483.28;;;5.24;79.68
51261;BME280;61705;46.228;24.812;2023-03-03T07:47:23;97485.81;;;5.27;79.73
51261;BME280;61705;46.228;24.812;2023-03-03T07:49:52;97489.44;;;5.21;79.34
51261;BME280;61705;46.228;24.812;2023-03-03T07:54:50;97489.00;;;5.38;79.14
51261;BME280;61705;46.228;24.812;2023-03-03T08:02:33;97497.09;;;5.60;78.74
51261;BME280;61705;46.228;24.812;2023-03-03T08:07:50;97492.97;;;5.83;78.43
51261;BME280;61705;46.228;24.812;2023-03-03T08:15:48;97484.53;;;6.03;77.36
51261;BME280;61705;46.228;24.812;2023-03-03T08:18:23;97483.34;;;6.13;76.94
51261;BME280;61705;46.228;24.812;2023-03-03T08:20:51;97489.09;;;6.24;76.84
51261;BME280;61705;46.228;24.812;2023-03-03T08:23:18;97484.06;;;6.46;76.46
51261;BME280;61705;46.228;24.812;2023-03-03T08:25:45;97476.41;;;6.65;75.67
51261;BME280;61705;46.228;24.812;2023-03-03T08:28:12;97474.25;;;6.78;75.51
51261;BME280;61705;46.228;24.812;2023-03-03T08:30:39;97474.56;;;6.94;75.12
51261;BME280;61705;46.228;24.812;2023-03-03T08:33:06;97473.63;;;6.96;74.51
51261;BME280;61705;46.228;24.812;2023-03-03T08:35:32;97468.91;;;7.06;73.89
51261;BME280;61705;46.228;24.812;2023-03-03T08:37:59;97471.16;;;7.17;73.07
51261;BME280;61705;46.228;24.812;2023-03-03T08:40:26;97473.59;;;7.21;73.07
51261;BME280;61705;46.228;24.812;2023-03-03T08:42:52;97473.59;;;7.21;72.30
51261;BME280;61705;46.228;24.812;2023-03-03T08:45:19;97474.03;;;7.34;71.69
51261;BME280;61705;46.228;24.812;2023-03-03T08:47:46;97472.66;;;7.24;71.03
51261;BME280;61705;46.228;24.812;2023-03-03T08:50:13;97476.94;;;7.26;71.09
51261;BME280;61705;46.228;24.812;2023-03-03T08:52:40;97479.41;;;7.31;71.13
51261;BME280;61705;46.228;24.812;2023-03-03T08:55:07;97473.16;;;7.35;71.28
51261;BME280;61705;46.228;24.812;2023-03-03T08:57:34;97476.78;;;7.31;71.00
51261;BME280;61705;46.228;24.812;2023-03-03T09:00:00;97469.72;;;7.33;70.88
51261;BME280;61705;46.228;24.812;2023-03-03T09:02:30;97462.69;;;7.33;70.95
51261;BME280;61705;46.228;24.812;2023-03-03T09:05:00;97467.78;;;7.62;71.01
51261;BME280;61705;46.228;24.812;2023-03-03T09:07:27;97466.28;;;7.78;70.65
51261;BME280;61705;46.228;24.812;2023-03-03T09:09:55;97466.25;;;7.79;70.49
51261;BME280;61705;46.228;24.812;2023-03-03T09:12:35;97458.28;;;7.81;70.07
51261;BME280;61705;46.228;24.812;2023-03-03T09:15:24;97454.16;;;7.97;70.04
51261;BME280;61705;46.228;24.812;2023-03-03T09:17:49;97460.47;;;7.93;69.59
51261;BME280;61705;46.228;24.812;2023-03-03T09:22:44;97448.81;;;7.99;69.63
51261;BME280;61705;46.228;24.812;2023-03-03T09:25:33;97448.25;;;8.14;69.42
51261;BME280;61705;46.228;24.812;2023-03-03T09:27:57;97438.38;;;8.19;68.96
51261;BME280;61705;46.228;24.812;2023-03-03T09:32:54;97445.59;;;8.36;68.64
51261;BME280;61705;46.228;24.812;2023-03-03T09:35:35;97436.56;;;8.65;68.26
51261;BME280;61705;46.228;24.812;2023-03-03T09:38:14;97434.69;;;8.67;67.55
51261;BME280;61705;46.228;24.812;2023-03-03T09:49:07;97428.50;;;8.89;66.34
51261;BME280;61705;46.228;24.812;2023-03-03T09:59:34;97414.44;;;8.90;65.78
51261;BME280;61705;46.228;24.812;2023-03-03T10:07:51;97415.16;;;8.93;65.62
51261;BME280;61705;46.228;24.812;2023-03-03T10:10:28;97403.78;;;9.12;65.47
51261;BME280;61705;46.228;24.812;2023-03-03T10:18:41;97398.41;;;9.15;64.83
51261;BME280;61705;46.228;24.812;2023-03-03T10:28:44;97389.28;;;8.83;65.49
51261;BME280;61705;46.228;24.812;2023-03-03T10:31:36;97378.78;;;8.81;64.89
51261;BME280;61705;46.228;24.812;2023-03-03T10:34:14;97381.66;;;8.95;65.00
51261;BME280;61705;46.228;24.812;2023-03-03T10:41:50;97377.06;;;9.00;65.02
51261;BME280;61705;46.228;24.812;2023-03-03T10:44:34;97364.88;;;8.98;65.43
51261;BME280;61705;46.228;24.812;2023-03-03T10:57:48;97359.09;;;8.90;64.67
51261;BME280;61705;46.228;24.812;2023-03-03T11:05:31;97353.28;;;8.82;64.39
51261;BME280;61705;46.228;24.812;2023-03-03T11:15:42;97336.63;;;9.39;62.67
51261;BME280;61705;46.228;24.812;2023-03-03T11:18:15;97330.94;;;9.48;62.29
51261;BME280;61705;46.228;24.812;2023-03-03T11:23:25;97336.94;;;9.52;61.92
51261;BME280;61705;46.228;24.812;2023-03-03T11:31:19;97323.16;;;9.45;61.01
51261;BME280;61705;46.228;24.812;2023-03-03T11:36:54;97327.56;;;9.26;60.47
51261;BME280;61705;46.228;24.812;2023-03-03T11:39:23;97321.69;;;9.21;60.03
51261;BME280;61705;46.228;24.812;2023-03-03T11:42:19;97330.44;;;9.21;60.04
51261;BME280;61705;46.228;24.812;2023-03-03T11:44:51;97325.91;;;9.05;58.97
51261;BME280;61705;46.228;24.812;2023-03-03T11:47:28;97321.84;;;8.97;58.98
51261;BME280;61705;46.228;24.812;2023-03-03T11:55:36;97326.94;;;8.82;60.20
51261;BME280;61705;46.228;24.812;2023-03-03T12:05:45;97325.38;;;8.77;59.86
51261;BME280;61705;46.228;24.812;2023-03-03T12:08:24;97323.31;;;8.84;59.64
51261;BME280;61705;46.228;24.812;2023-03-03T12:10:58;97309.28;;;8.84;59.42
51261;BME280;61705;46.228;24.812;2023-03-03T12:16:06;97304.34;;;9.15;59.72
51261;BME280;61705;46.228;24.812;2023-03-03T12:31:52;97308.97;;;9.29;58.34
51261;BME280;61705;46.228;24.812;2023-03-03T12:39:38;97303.28;;;9.19;57.14
51261;BME280;61705;46.228;24.812;2023-03-03T12:47:19;97300.78;;;8.97;58.24
51261;BME280;61705;46.228;24.812;2023-03-03T12:57:50;97303.19;;;8.63;60.70
51261;BME280;61705;46.228;24.812;2023-03-03T13:00:26;97307.03;;;8.56;61.07
51261;BME280;61705;46.228;24.812;2023-03-03T13:05:43;97309.06;;;8.69;60.83
51261;BME280;61705;46.228;24.812;2023-03-03T13:10:54;97294.88;;;8.92;60.37
51261;BME280;61705;46.228;24.812;2023-03-03T13:16:01;97296.38;;;9.17;59.76
51261;BME280;61705;46.228;24.812;2023-03-03T13:22:21;97288.16;;;9.23;59.48
51261;BME280;61705;46.228;24.812;2023-03-03T13:24:30;97290.81;;;9.23;58.45
51261;BME280;61705;46.228;24.812;2023-03-03T13:39:25;97286.16;;;8.90;59.26
51261;BME280;61705;46.228;24.812;2023-03-03T13:44:45;97285.44;;;8.87;59.46
51261;BME280;61705;46.228;24.812;2023-03-03T13:52:56;97277.47;;;8.88;59.29
51261;BME280;61705;46.228;24.812;2023-03-03T13:58:15;97273.47;;;8.98;58.71
51261;BME280;61705;46.228;24.812;2023-03-03T14:00:51;97272.38;;;9.04;58.24
51261;BME280;61705;46.228;24.812;2023-03-03T14:04:09;97274.59;;;9.13;58.17
51261;BME280;61705;46.228;24.812;2023-03-03T14:06:17;97269.16;;;9.16;58.22
51261;BME280;61705;46.228;24.812;2023-03-03T14:08:56;97270.66;;;9.22;58.12
51261;BME280;61705;46.228;24.812;2023-03-03T14:18:57;97265.25;;;9.06;58.45
51261;BME280;61705;46.228;24.812;2023-03-03T14:24:08;97264.81;;;8.96;58.74
51261;BME280;61705;46.228;24.812;2023-03-03T14:26:48;97255.75;;;9.02;58.96
51261;BME280;61705;46.228;24.812;2023-03-03T14:29:20;97249.75;;;8.98;58.73
51261;BME280;61705;46.228;24.812;2023-03-03T14:31:49;97257.81;;;8.95;58.94
51261;BME280;61705;46.228;24.812;2023-03-03T14:39:38;97256.59;;;8.84;58.38
51261;BME280;61705;46.228;24.812;2023-03-03T14:42:12;97253.31;;;8.78;58.51
51261;BME280;61705;46.228;24.812;2023-03-03T14:44:49;97246.56;;;8.73;59.10
51261;BME280;61705;46.228;24.812;2023-03-03T14:47:19;97251.97;;;8.70;59.45
51261;BME280;61705;46.228;24.812;2023-03-03T14:49:47;97253.66;;;8.71;59.39
51261;BME280;61705;46.228;24.812;2023-03-03T14:52:20;97250.25;;;8.69;59.31
51261;BME280;61705;46.228;24.812;2023-03-03T14:54:54;97253.78;;;8.68;59.47
51261;BME280;61705;46.228;24.812;2023-03-03T15:07:52;97258.81;;;8.53;60.52
51261;BME280;61705;46.228;24.812;2023-03-03T15:10:26;97258.81;;;8.53;60.57
51261;BME280;61705;46.228;24.812;2023-03-03T15:12:56;97260.47;;;8.56;60.44
51261;BME280;61705;46.228;24.812;2023-03-03T15:15:23;97260.34;;;8.59;59.92
51261;BME280;61705;46.228;24.812;2023-03-03T15:17:56;97259.16;;;8.46;60.28
51261;BME280;61705;46.228;24.812;2023-03-03T15:20:29;97260.28;;;8.40;60.37
51261;BME280;61705;46.228;24.812;2023-03-03T15:25:30;97251.84;;;8.32;59.73
51261;BME280;61705;46.228;24.812;2023-03-03T15:28:25;97258.94;;;8.30;59.69
51261;BME280;61705;46.228;24.812;2023-03-03T15:33:34;97265.34;;;8.24;59.75
51261;BME280;61705;46.228;24.812;2023-03-03T15:36:09;97268.13;;;8.20;59.28
51261;BME280;61705;46.228;24.812;2023-03-03T15:46:20;97270.72;;;7.79;58.60
51261;BME280;61705;46.228;24.812;2023-03-03T15:57:21;97270.50;;;7.41;58.92
51261;BME280;61705;46.228;24.812;2023-03-03T16:02:51;97269.72;;;7.39;58.38
51261;BME280;61705;46.228;24.812;2023-03-03T16:05:32;97273.78;;;7.24;59.37
51261;BME280;61705;46.228;24.812;2023-03-03T16:08:11;97273.22;;;7.16;59.86
51261;BME280;61705;46.228;24.812;2023-03-03T16:11:01;97283.41;;;7.02;60.67
51261;BME280;61705;46.228;24.812;2023-03-03T16:13:33;97290.03;;;6.88;61.14
51261;BME280;61705;46.228;24.812;2023-03-03T16:16:29;97292.94;;;6.81;61.97
51261;BME280;61705;46.228;24.812;2023-03-03T16:26:59;97299.63;;;6.41;64.36
51261;BME280;61705;46.228;24.812;2023-03-03T16:32:09;97304.97;;;6.13;65.42
51261;BME280;61705;46.228;24.812;2023-03-03T16:42:39;97320.91;;;5.79;67.04
51261;BME280;61705;46.228;24.812;2023-03-03T16:54:04;97322.75;;;5.49;68.62
51261;BME280;61705;46.228;24.812;2023-03-03T16:56:40;97328.25;;;5.39;69.04
51261;BME280;61705;46.228;24.812;2023-03-03T17:02:08;97338.16;;;5.30;69.74
51261;BME280;61705;46.228;24.812;2023-03-03T17:07:27;97337.63;;;5.18;70.88
51261;BME280;61705;46.228;24.812;2023-03-03T17:35:42;97361.56;;;4.41;74.77
51261;BME280;61705;46.228;24.812;2023-03-03T17:46:35;97372.94;;;4.41;75.16
51261;BME280;61705;46.228;24.812;2023-03-03T17:52:29;97380.88;;;4.37;75.61
51261;BME280;61705;46.228;24.812;2023-03-03T18:22:44;97402.41;;;3.76;78.52
51261;BME280;61705;46.228;24.812;2023-03-03T18:25:22;97408.41;;;3.80;78.58
51261;BME280;61705;46.228;24.812;2023-03-03T18:34:07;97418.28;;;3.67;79.27
51261;BME280;61705;46.228;24.812;2023-03-03T18:36:38;97416.63;;;3.63;79.58
51261;BME280;61705;46.228;24.812;2023-03-03T18:39:05;97422.66;;;3.65;79.88
51261;BME280;61705;46.228;24.812;2023-03-03T18:42:08;97428.91;;;3.60;80.04
51261;BME280;61705;46.228;24.812;2023-03-03T18:44:35;97429.03;;;3.52;80.28
51261;BME280;61705;46.228;24.812;2023-03-03T18:47:03;97430.72;;;3.56;80.39
51261;BME280;61705;46.228;24.812;2023-03-03T18:53:15;97433.47;;;3.50;80.58
51261;BME280;61705;46.228;24.812;2023-03-03T18:55:55;97430.06;;;3.45;80.85
51261;BME280;61705;46.228;24.812;2023-03-03T19:00:57;97438.06;;;3.39;81.22
51261;BME280;61705;46.228;24.812;2023-03-03T19:05:56;97443.31;;;3.37;81.47
51261;BME280;61705;46.228;24.812;2023-03-03T19:08:52;97440.75;;;3.34;81.62
51261;BME280;61705;46.228;24.812;2023-03-03T19:11:39;97440.13;;;3.23;81.89
51261;BME280;61705;46.228;24.812;2023-03-03T19:17:40;97449.75;;;3.19;82.14
51261;BME280;61705;46.228;24.812;2023-03-03T19:20:00;97447.16;;;3.18;82.37
51261;BME280;61705;46.228;24.812;2023-03-03T19:22:28;97451.59;;;3.14;82.50
51261;BME280;61705;46.228;24.812;2023-03-03T19:25:16;97457.69;;;3.15;82.83
51261;BME280;61705;46.228;24.812;2023-03-03T19:31:00;97449.13;;;3.06;82.96
51261;BME280;61705;46.228;24.812;2023-03-03T19:36:39;97448.34;;;3.03;83.04
51261;BME280;61705;46.228;24.812;2023-03-03T19:45:17;97449.56;;;2.85;83.64
51261;BME280;61705;46.228;24.812;2023-03-03T19:50:45;97453.91;;;2.83;84.02
51261;BME280;61705;46.228;24.812;2023-03-03T19:53:21;97468.88;;;2.75;84.07